sensor_id;sensor_type;location;lat;lon;timestamp;temperature;humidity
15359;DHT22;7779;49.596;11.070;2023-11-21T00:01:37;9.80;78.40
15359;DHT22;7779;49.596;11.070;2023-11-21T00:04:03;9.80;78.50
15359;DHT22;7779;49.596;11.070;2023-11-21T00:06:29;9.80;78.50
15359;DHT22;7779;49.596;11.070;2023-11-21T00:08:56;9.80;78.50
15359;DHT22;7779;49.596;11.070;2023-11-21T00:11:21;9.80;78.60
15359;DHT22;7779;49.596;11.070;2023-11-21T00:13:47;9.80;78.60
15359;DHT22;7779;49.596;11.070;2023-11-21T00:16:13;9.80;78.60
15359;DHT22;7779;49.596;11.070;2023-11-21T00:18:39;9.80;78.60
15359;DHT22;7779;49.596;11.070;2023-11-21T00:21:05;9.80;78.60
15359;DHT22;7779;49.596;11.070;2023-11-21T00:23:30;9.80;78.60
15359;DHT22;7779;49.596;11.070;2023-11-21T00:25:56;9.80;78.60
15359;DHT22;7779;49.596;11.070;2023-11-21T00:28:22;9.80;78.50
15359;DHT22;7779;49.596;11.070;2023-11-21T00:30:48;9.80;78.60
15359;DHT22;7779;49.596;11.070;2023-11-21T00:33:13;9.80;78.50
15359;DHT22;7779;49.596;11.070;2023-11-21T00:35:39;9.80;78.50
15359;DHT22;7779;49.596;11.070;2023-11-21T00:38:05;9.80;78.60
15359;DHT22;7779;49.596;11.070;2023-11-21T00:40:32;9.80;78.60
15359;DHT22;7779;49.596;11.070;2023-11-21T00:42:58;9.80;78.70
15359;DHT22;7779;49.596;11.070;2023-11-21T00:45:24;9.80;78.70
15359;DHT22;7779;49.596;11.070;2023-11-21T00:47:50;9.80;78.80
15359;DHT22;7779;49.596;11.070;2023-11-21T00:50:16;9.80;78.80
15359;DHT22;7779;49.596;11.070;2023-11-21T00:52:41;9.80;78.90
15359;DHT22;7779;49.596;11.070;2023-11-21T00:55:07;9.80;78.90
15359;DHT22;7779;49.596;11.070;2023-11-21T00:57:34;9.80;78.90
15359;DHT22;7779;49.596;11.070;2023-11-21T01:00:00;9.80;78.90
15359;DHT22;7779;49.596;11.070;2023-11-21T01:02:26;9.80;78.90
15359;DHT22;7779;49.596;11.070;2023-11-21T01:04:52;9.80;78.90
15359;DHT22;7779;49.596;11.070;2023-11-21T01:07:19;9.80;78.90
15359;DHT22;7779;49.596;11.070;2023-11-21T01:09:46;9.80;79.50
15359;DHT22;7779;49.596;11.070;2023-11-21T01:12:11;9.80;79.00
15359;DHT22;7779;49.596;11.070;2023-11-21T01:14:37;9.90;79.10
15359;DHT22;7779;49.596;11.070;2023-11-21T01:17:03;9.90;79.10
15359;DHT22;7779;49.596;11.070;2023-11-21T01:19:30;9.90;79.00
15359;DHT22;7779;49.596;11.070;2023-11-21T01:21:56;9.90;79.00
15359;DHT22;7779;49.596;11.070;2023-11-21T01:24:23;9.90;79.00
15359;DHT22;7779;49.596;11.070;2023-11-21T01:26:49;9.90;79.10
15359;DHT22;7779;49.596;11.070;2023-11-21T01:29:15;9.90;79.10
15359;DHT22;7779;49.596;11.070;2023-11-21T01:31:41;9.90;79.10
15359;DHT22;7779;49.596;11.070;2023-11-21T01:34:07;9.90;79.10
15359;DHT22;7779;49.596;11.070;2023-11-21T01:36:32;9.90;79.10
15359;DHT22;7779;49.596;11.070;2023-11-21T01:38:59;9.90;79.10
15359;DHT22;7779;49.596;11.070;2023-11-21T01:41:28;9.90;79.10
15359;DHT22;7779;49.596;11.070;2023-11-21T01:43:54;9.90;79.20
15359;DHT22;7779;49.596;11.070;2023-11-21T01:46:21;9.90;79.10
15359;DHT22;7779;49.596;11.070;2023-11-21T01:48:48;9.90;79.10
15359;DHT22;7779;49.596;11.070;2023-11-21T01:51:15;9.90;79.10
15359;DHT22;7779;49.596;11.070;2023-11-21T01:53:42;9.90;79.10
15359;DHT22;7779;49.596;11.070;2023-11-21T01:56:09;9.90;79.10
15359;DHT22;7779;49.596;11.070;2023-11-21T01:58:35;9.90;79.10
15359;DHT22;7779;49.596;11.070;2023-11-21T02:01:02;9.90;79.10
15359;DHT22;7779;49.596;11.070;2023-11-21T02:03:28;9.90;79.20
15359;DHT22;7779;49.596;11.070;2023-11-21T02:05:53;9.90;79.20
15359;DHT22;7779;49.596;11.070;2023-11-21T02:08:19;9.90;79.30
15359;DHT22;7779;49.596;11.070;2023-11-21T02:10:45;9.90;79.20
15359;DHT22;7779;49.596;11.070;2023-11-21T02:13:11;9.90;79.30
15359;DHT22;7779;49.596;11.070;2023-11-21T02:15:37;9.90;79.30
15359;DHT22;7779;49.596;11.070;2023-11-21T02:18:04;9.90;79.30
15359;DHT22;7779;49.596;11.070;2023-11-21T02:20:31;9.90;79.40
15359;DHT22;7779;49.596;11.070;2023-11-21T02:23:00;9.90;79.40
15359;DHT22;7779;49.596;11.070;2023-11-21T02:25:27;9.90;79.40
15359;DHT22;7779;49.596;11.070;2023-11-21T02:27:55;9.90;79.40
15359;DHT22;7779;49.596;11.070;2023-11-21T02:30:22;9.90;79.50
15359;DHT22;7779;49.596;11.070;2023-11-21T02:32:51;9.90;79.50
15359;DHT22;7779;49.596;11.070;2023-11-21T02:35:23;9.90;79.60
15359;DHT22;7779;49.596;11.070;2023-11-21T02:37:51;9.90;79.50
15359;DHT22;7779;49.596;11.070;2023-11-21T02:40:18;9.90;79.50
15359;DHT22;7779;49.596;11.070;2023-11-21T02:42:49;9.90;79.50
15359;DHT22;7779;49.596;11.070;2023-11-21T02:45:21;9.90;79.50
15359;DHT22;7779;49.596;11.070;2023-11-21T02:47:47;9.90;79.50
15359;DHT22;7779;49.596;11.070;2023-11-21T02:50:14;9.90;79.50
15359;DHT22;7779;49.596;11.070;2023-11-21T02:52:40;9.90;79.50
15359;DHT22;7779;49.596;11.070;2023-11-21T02:55:06;9.90;79.60
15359;DHT22;7779;49.596;11.070;2023-11-21T02:57:35;9.90;79.60
15359;DHT22;7779;49.596;11.070;2023-11-21T03:00:01;9.90;79.60
15359;DHT22;7779;49.596;11.070;2023-11-21T03:02:28;9.90;79.70
15359;DHT22;7779;49.596;11.070;2023-11-21T03:04:53;9.90;79.60
15359;DHT22;7779;49.596;11.070;2023-11-21T03:07:19;9.90;79.70
15359;DHT22;7779;49.596;11.070;2023-11-21T03:09:45;9.90;79.70
15359;DHT22;7779;49.596;11.070;2023-11-21T03:12:11;9.90;79.60
15359;DHT22;7779;49.596;11.070;2023-11-21T03:14:38;9.90;80.20
15359;DHT22;7779;49.596;11.070;2023-11-21T03:17:05;9.90;79.60
15359;DHT22;7779;49.596;11.070;2023-11-21T03:19:31;9.90;79.60
15359;DHT22;7779;49.596;11.070;2023-11-21T03:21:56;9.90;79.60
15359;DHT22;7779;49.596;11.070;2023-11-21T03:24:23;9.90;79.60
15359;DHT22;7779;49.596;11.070;2023-11-21T03:26:48;9.90;79.70
15359;DHT22;7779;49.596;11.070;2023-11-21T03:29:14;9.90;79.60
15359;DHT22;7779;49.596;11.070;2023-11-21T03:31:40;9.90;79.60
15359;DHT22;7779;49.596;11.070;2023-11-21T03:34:06;9.90;79.60
15359;DHT22;7779;49.596;11.070;2023-11-21T03:36:35;9.90;79.60
15359;DHT22;7779;49.596;11.070;2023-11-21T03:39:02;9.90;79.70
15359;DHT22;7779;49.596;11.070;2023-11-21T03:41:27;9.90;79.60
15359;DHT22;7779;49.596;11.070;2023-11-21T03:43:54;9.90;79.60
15359;DHT22;7779;49.596;11.070;2023-11-21T03:46:19;9.90;79.60
15359;DHT22;7779;49.596;11.070;2023-11-21T03:48:45;9.90;79.70
15359;DHT22;7779;49.596;11.070;2023-11-21T03:51:10;9.90;79.40
15359;DHT22;7779;49.596;11.070;2023-11-21T03:53:36;9.90;79.80
15359;DHT22;7779;49.596;11.070;2023-11-21T03:56:03;9.90;79.80
15359;DHT22;7779;49.596;11.070;2023-11-21T03:58:29;9.90;79.80
15359;DHT22;7779;49.596;11.070;2023-11-21T04:00:55;9.90;79.80
15359;DHT22;7779;49.596;11.070;2023-11-21T04:03:21;9.90;79.80
15359;DHT22;7779;49.596;11.070;2023-11-21T04:05:46;9.90;79.80
15359;DHT22;7779;49.596;11.070;2023-11-21T04:08:12;9.90;79.90
15359;DHT22;7779;49.596;11.070;2023-11-21T04:10:38;9.90;79.80
15359;DHT22;7779;49.596;11.070;2023-11-21T04:13:05;9.90;79.80
15359;DHT22;7779;49.596;11.070;2023-11-21T04:15:32;9.90;79.80
15359;DHT22;7779;49.596;11.070;2023-11-21T04:17:58;9.90;79.80
15359;DHT22;7779;49.596;11.070;2023-11-21T04:20:24;9.90;79.80
15359;DHT22;7779;49.596;11.070;2023-11-21T04:22:50;9.90;79.80
15359;DHT22;7779;49.596;11.070;2023-11-21T04:25:16;9.90;79.80
15359;DHT22;7779;49.596;11.070;2023-11-21T04:27:43;9.90;79.80
15359;DHT22;7779;49.596;11.070;2023-11-21T04:30:11;9.90;79.80
15359;DHT22;7779;49.596;11.070;2023-11-21T04:32:39;10.00;78.90
15359;DHT22;7779;49.596;11.070;2023-11-21T04:35:05;10.00;78.90
15359;DHT22;7779;49.596;11.070;2023-11-21T04:37:31;10.00;78.90
15359;DHT22;7779;49.596;11.070;2023-11-21T04:39:57;9.90;79.80
15359;DHT22;7779;49.596;11.070;2023-11-21T04:42:23;10.00;78.90
15359;DHT22;7779;49.596;11.070;2023-11-21T04:44:49;10.00;78.90
15359;DHT22;7779;49.596;11.070;2023-11-21T04:47:15;10.00;78.90
15359;DHT22;7779;49.596;11.070;2023-11-21T04:49:42;10.00;78.90
15359;DHT22;7779;49.596;11.070;2023-11-21T04:52:09;10.00;78.90
15359;DHT22;7779;49.596;11.070;2023-11-21T04:54:35;10.00;78.90
15359;DHT22;7779;49.596;11.070;2023-11-21T04:57:01;10.00;78.90
15359;DHT22;7779;49.596;11.070;2023-11-21T04:59:27;10.00;78.90
15359;DHT22;7779;49.596;11.070;2023-11-21T05:01:53;10.00;78.90
15359;DHT22;7779;49.596;11.070;2023-11-21T05:04:19;10.00;78.90
15359;DHT22;7779;49.596;11.070;2023-11-21T05:06:47;10.00;79.00
15359;DHT22;7779;49.596;11.070;2023-11-21T05:09:13;10.00;79.00
15359;DHT22;7779;49.596;11.070;2023-11-21T05:11:41;10.00;79.00
15359;DHT22;7779;49.596;11.070;2023-11-21T05:14:07;10.00;79.00
15359;DHT22;7779;49.596;11.070;2023-11-21T05:16:34;10.00;79.00
15359;DHT22;7779;49.596;11.070;2023-11-21T05:19:00;10.00;78.60
15359;DHT22;7779;49.596;11.070;2023-11-21T05:21:27;10.00;79.10
15359;DHT22;7779;49.596;11.070;2023-11-21T05:23:55;10.00;79.10
15359;DHT22;7779;49.596;11.070;2023-11-21T05:26:20;10.00;79.10
15359;DHT22;7779;49.596;11.070;2023-11-21T05:28:46;9.90;80.10
15359;DHT22;7779;49.596;11.070;2023-11-21T05:31:12;10.00;79.10
15359;DHT22;7779;49.596;11.070;2023-11-21T05:33:37;10.00;79.10
15359;DHT22;7779;49.596;11.070;2023-11-21T05:36:03;10.00;79.10
15359;DHT22;7779;49.596;11.070;2023-11-21T05:38:29;10.00;79.10
15359;DHT22;7779;49.596;11.070;2023-11-21T05:40:55;9.90;80.30
15359;DHT22;7779;49.596;11.070;2023-11-21T05:43:21;10.00;79.30
15359;DHT22;7779;49.596;11.070;2023-11-21T05:45:46;10.00;79.20
15359;DHT22;7779;49.596;11.070;2023-11-21T05:48:12;9.90;80.20
15359;DHT22;7779;49.596;11.070;2023-11-21T05:50:38;9.90;80.10
15359;DHT22;7779;49.596;11.070;2023-11-21T05:53:04;10.00;79.20
15359;DHT22;7779;49.596;11.070;2023-11-21T05:55:29;9.90;80.10
15359;DHT22;7779;49.596;11.070;2023-11-21T05:57:55;9.90;80.30
15359;DHT22;7779;49.596;11.070;2023-11-21T06:00:21;10.00;79.20
15359;DHT22;7779;49.596;11.070;2023-11-21T06:02:52;10.00;79.30
15359;DHT22;7779;49.596;11.070;2023-11-21T06:05:19;10.00;79.20
15359;DHT22;7779;49.596;11.070;2023-11-21T06:07:52;9.90;80.20
15359;DHT22;7779;49.596;11.070;2023-11-21T06:10:21;9.90;80.50
15359;DHT22;7779;49.596;11.070;2023-11-21T06:12:47;9.90;80.90
15359;DHT22;7779;49.596;11.070;2023-11-21T06:15:13;10.00;79.30
15359;DHT22;7779;49.596;11.070;2023-11-21T06:17:40;9.90;80.30
15359;DHT22;7779;49.596;11.070;2023-11-21T06:20:10;10.00;79.40
15359;DHT22;7779;49.596;11.070;2023-11-21T06:22:43;9.90;80.40
15359;DHT22;7779;49.596;11.070;2023-11-21T06:25:09;10.00;79.40
15359;DHT22;7779;49.596;11.070;2023-11-21T06:27:41;10.00;79.40
15359;DHT22;7779;49.596;11.070;2023-11-21T06:30:10;10.00;79.50
15359;DHT22;7779;49.596;11.070;2023-11-21T06:32:38;10.00;79.40
15359;DHT22;7779;49.596;11.070;2023-11-21T06:35:05;10.00;79.40
15359;DHT22;7779;49.596;11.070;2023-11-21T06:37:32;10.00;79.40
15359;DHT22;7779;49.596;11.070;2023-11-21T06:39:59;10.00;79.40
15359;DHT22;7779;49.596;11.070;2023-11-21T06:42:26;10.00;79.40
15359;DHT22;7779;49.596;11.070;2023-11-21T06:44:52;10.00;79.50
15359;DHT22;7779;49.596;11.070;2023-11-21T06:47:19;10.00;79.60
15359;DHT22;7779;49.596;11.070;2023-11-21T06:49:46;10.00;79.50
15359;DHT22;7779;49.596;11.070;2023-11-21T06:52:14;10.00;79.60
15359;DHT22;7779;49.596;11.070;2023-11-21T06:54:40;10.00;79.60
15359;DHT22;7779;49.596;11.070;2023-11-21T06:57:06;10.00;79.60
15359;DHT22;7779;49.596;11.070;2023-11-21T06:59:32;10.00;79.60
15359;DHT22;7779;49.596;11.070;2023-11-21T07:01:57;10.00;79.60
15359;DHT22;7779;49.596;11.070;2023-11-21T07:04:23;10.00;79.70
15359;DHT22;7779;49.596;11.070;2023-11-21T07:06:51;10.10;79.70
15359;DHT22;7779;49.596;11.070;2023-11-21T07:09:18;10.10;79.70
15359;DHT22;7779;49.596;11.070;2023-11-21T07:11:48;10.10;79.70
15359;DHT22;7779;49.596;11.070;2023-11-21T07:14:14;10.10;79.70
15359;DHT22;7779;49.596;11.070;2023-11-21T07:16:41;10.10;79.70
15359;DHT22;7779;49.596;11.070;2023-11-21T07:19:07;10.10;79.80
15359;DHT22;7779;49.596;11.070;2023-11-21T07:21:34;10.10;79.80
15359;DHT22;7779;49.596;11.070;2023-11-21T07:24:01;10.10;79.90
15359;DHT22;7779;49.596;11.070;2023-11-21T07:26:28;10.20;80.00
15359;DHT22;7779;49.596;11.070;2023-11-21T07:28:54;10.20;80.00
15359;DHT22;7779;49.596;11.070;2023-11-21T07:31:22;10.20;80.00
15359;DHT22;7779;49.596;11.070;2023-11-21T07:33:48;10.20;80.00
15359;DHT22;7779;49.596;11.070;2023-11-21T07:36:14;10.30;80.20
15359;DHT22;7779;49.596;11.070;2023-11-21T07:38:42;10.30;80.30
15359;DHT22;7779;49.596;11.070;2023-11-21T07:41:08;10.30;80.30
15359;DHT22;7779;49.596;11.070;2023-11-21T07:43:35;10.40;80.30
15359;DHT22;7779;49.596;11.070;2023-11-21T07:46:02;10.40;80.30
15359;DHT22;7779;49.596;11.070;2023-11-21T07:48:29;10.40;80.20
15359;DHT22;7779;49.596;11.070;2023-11-21T07:50:57;10.50;80.30
15359;DHT22;7779;49.596;11.070;2023-11-21T07:53:26;10.50;80.20
15359;DHT22;7779;49.596;11.070;2023-11-21T07:55:54;10.50;80.20
15359;DHT22;7779;49.596;11.070;2023-11-21T07:58:20;10.50;80.10
15359;DHT22;7779;49.596;11.070;2023-11-21T08:00:46;10.60;80.20
15359;DHT22;7779;49.596;11.070;2023-11-21T08:03:13;10.60;80.20
15359;DHT22;7779;49.596;11.070;2023-11-21T08:05:39;10.60;80.10
15359;DHT22;7779;49.596;11.070;2023-11-21T08:08:05;10.60;80.00
15359;DHT22;7779;49.596;11.070;2023-11-21T08:10:31;10.70;80.00
15359;DHT22;7779;49.596;11.070;2023-11-21T08:12:57;10.70;79.90
15359;DHT22;7779;49.596;11.070;2023-11-21T08:15:23;10.70;79.90
15359;DHT22;7779;49.596;11.070;2023-11-21T08:17:49;10.70;79.90
15359;DHT22;7779;49.596;11.070;2023-11-21T08:20:15;10.80;79.70
15359;DHT22;7779;49.596;11.070;2023-11-21T08:22:42;10.80;80.00
15359;DHT22;7779;49.596;11.070;2023-11-21T08:25:08;10.80;80.00
15359;DHT22;7779;49.596;11.070;2023-11-21T08:27:34;10.80;80.00
15359;DHT22;7779;49.596;11.070;2023-11-21T08:30:06;10.80;79.90
15359;DHT22;7779;49.596;11.070;2023-11-21T08:32:32;10.90;80.00
15359;DHT22;7779;49.596;11.070;2023-11-21T08:35:01;10.90;79.80
15359;DHT22;7779;49.596;11.070;2023-11-21T08:37:27;10.90;79.80
15359;DHT22;7779;49.596;11.070;2023-11-21T08:39:57;10.90;79.90
15359;DHT22;7779;49.596;11.070;2023-11-21T08:42:25;11.00;80.00
15359;DHT22;7779;49.596;11.070;2023-11-21T08:44:50;11.00;80.00
15359;DHT22;7779;49.596;11.070;2023-11-21T08:47:16;11.00;79.90
15359;DHT22;7779;49.596;11.070;2023-11-21T08:49:42;11.00;79.70
15359;DHT22;7779;49.596;11.070;2023-11-21T08:52:08;11.10;79.60
15359;DHT22;7779;49.596;11.070;2023-11-21T08:54:34;11.10;79.60
15359;DHT22;7779;49.596;11.070;2023-11-21T08:56:59;11.10;79.60
15359;DHT22;7779;49.596;11.070;2023-11-21T08:59:26;11.10;79.00
15359;DHT22;7779;49.596;11.070;2023-11-21T09:01:52;11.10;79.70
15359;DHT22;7779;49.596;11.070;2023-11-21T09:04:18;11.20;79.80
15359;DHT22;7779;49.596;11.070;2023-11-21T09:06:43;11.20;79.90
15359;DHT22;7779;49.596;11.070;2023-11-21T09:09:09;11.20;79.80
15359;DHT22;7779;49.596;11.070;2023-11-21T09:11:36;11.30;79.90
15359;DHT22;7779;49.596;11.070;2023-11-21T09:14:03;11.30;79.90
15359;DHT22;7779;49.596;11.070;2023-11-21T09:16:29;11.40;80.00
15359;DHT22;7779;49.596;11.070;2023-11-21T09:18:55;11.40;79.90
15359;DHT22;7779;49.596;11.070;2023-11-21T09:21:21;11.40;79.20
15359;DHT22;7779;49.596;11.070;2023-11-21T09:23:48;11.50;79.80
15359;DHT22;7779;49.596;11.070;2023-11-21T09:26:13;11.50;79.60
15359;DHT22;7779;49.596;11.070;2023-11-21T09:28:42;11.50;79.30
15359;DHT22;7779;49.596;11.070;2023-11-21T09:31:13;11.60;80.00
15359;DHT22;7779;49.596;11.070;2023-11-21T09:33:42;11.60;79.30
15359;DHT22;7779;49.596;11.070;2023-11-21T09:36:12;11.60;79.20
15359;DHT22;7779;49.596;11.070;2023-11-21T09:38:41;11.60;79.20
15359;DHT22;7779;49.596;11.070;2023-11-21T09:41:15;11.60;79.30
15359;DHT22;7779;49.596;11.070;2023-11-21T09:43:52;11.70;79.40
15359;DHT22;7779;49.596;11.070;2023-11-21T09:46:23;11.70;79.40
15359;DHT22;7779;49.596;11.070;2023-11-21T09:48:53;11.70;79.30
15359;DHT22;7779;49.596;11.070;2023-11-21T09:51:24;11.70;79.20
15359;DHT22;7779;49.596;11.070;2023-11-21T09:53:57;11.80;79.20
15359;DHT22;7779;49.596;11.070;2023-11-21T09:56:25;11.80;79.20
15359;DHT22;7779;49.596;11.070;2023-11-21T09:58:53;11.90;79.20
15359;DHT22;7779;49.596;11.070;2023-11-21T10:01:20;11.90;79.20
15359;DHT22;7779;49.596;11.070;2023-11-21T10:03:48;11.90;79.10
15359;DHT22;7779;49.596;11.070;2023-11-21T10:06:14;11.90;79.10
15359;DHT22;7779;49.596;11.070;2023-11-21T10:08:42;12.00;79.00
15359;DHT22;7779;49.596;11.070;2023-11-21T10:11:08;12.00;78.80
15359;DHT22;7779;49.596;11.070;2023-11-21T10:13:37;12.10;79.40
15359;DHT22;7779;49.596;11.070;2023-11-21T10:16:07;12.10;78.80
15359;DHT22;7779;49.596;11.070;2023-11-21T10:18:37;12.10;78.50
15359;DHT22;7779;49.596;11.070;2023-11-21T10:21:06;12.10;77.00
15359;DHT22;7779;49.596;11.070;2023-11-21T10:23:34;12.20;78.40
15359;DHT22;7779;49.596;11.070;2023-11-21T10:26:00;12.20;78.20
15359;DHT22;7779;49.596;11.070;2023-11-21T10:28:26;12.30;78.20
15359;DHT22;7779;49.596;11.070;2023-11-21T10:30:52;12.30;78.10
15359;DHT22;7779;49.596;11.070;2023-11-21T10:33:27;12.30;78.00
15359;DHT22;7779;49.596;11.070;2023-11-21T10:35:54;12.30;77.50
15359;DHT22;7779;49.596;11.070;2023-11-21T10:38:21;12.40;78.10
15359;DHT22;7779;49.596;11.070;2023-11-21T10:40:48;12.40;78.10
15359;DHT22;7779;49.596;11.070;2023-11-21T10:43:15;12.50;78.20
15359;DHT22;7779;49.596;11.070;2023-11-21T10:45:42;12.50;78.10
15359;DHT22;7779;49.596;11.070;2023-11-21T10:48:15;12.50;78.00
15359;DHT22;7779;49.596;11.070;2023-11-21T10:50:41;12.60;77.50
15359;DHT22;7779;49.596;11.070;2023-11-21T10:53:08;12.60;77.60
15359;DHT22;7779;49.596;11.070;2023-11-21T10:55:34;12.60;77.20
15359;DHT22;7779;49.596;11.070;2023-11-21T10:58:04;12.60;77.70
15359;DHT22;7779;49.596;11.070;2023-11-21T11:00:32;12.60;76.50
15359;DHT22;7779;49.596;11.070;2023-11-21T11:02:59;12.70;76.90
15359;DHT22;7779;49.596;11.070;2023-11-21T11:05:29;12.60;76.60
15359;DHT22;7779;49.596;11.070;2023-11-21T11:07:59;12.70;76.30
15359;DHT22;7779;49.596;11.070;2023-11-21T11:10:29;12.70;76.40
15359;DHT22;7779;49.596;11.070;2023-11-21T11:12:56;12.70;76.40
15359;DHT22;7779;49.596;11.070;2023-11-21T11:15:26;12.70;76.30
15359;DHT22;7779;49.596;11.070;2023-11-21T11:17:55;12.60;76.20
15359;DHT22;7779;49.596;11.070;2023-11-21T11:20:23;12.70;76.30
15359;DHT22;7779;49.596;11.070;2023-11-21T11:34:40;12.70;75.40
15359;DHT22;7779;49.596;11.070;2023-11-21T11:37:12;12.70;75.50
15359;DHT22;7779;49.596;11.070;2023-11-21T11:39:42;12.70;75.50
15359;DHT22;7779;49.596;11.070;2023-11-21T11:42:15;12.60;75.30
15359;DHT22;7779;49.596;11.070;2023-11-21T11:50:07;12.60;75.20
15359;DHT22;7779;49.596;11.070;2023-11-21T11:52:47;12.60;75.40
15359;DHT22;7779;49.596;11.070;2023-11-21T11:55:19;12.60;75.50
15359;DHT22;7779;49.596;11.070;2023-11-21T11:57:52;12.60;75.70
15359;DHT22;7779;49.596;11.070;2023-11-21T12:00:43;12.60;75.70
15359;DHT22;7779;49.596;11.070;2023-11-21T12:03:09;12.60;75.90
15359;DHT22;7779;49.596;11.070;2023-11-21T12:05:36;12.60;75.90
15359;DHT22;7779;49.596;11.070;2023-11-21T12:08:05;12.60;75.80
15359;DHT22;7779;49.596;11.070;2023-11-21T12:10:33;12.70;75.80
15359;DHT22;7779;49.596;11.070;2023-11-21T12:13:08;12.70;75.80
15359;DHT22;7779;49.596;11.070;2023-11-21T12:15:36;12.70;75.40
15359;DHT22;7779;49.596;11.070;2023-11-21T12:18:02;12.70;75.70
15359;DHT22;7779;49.596;11.070;2023-11-21T12:20:29;12.70;74.10
15359;DHT22;7779;49.596;11.070;2023-11-21T12:22:59;12.70;75.40
15359;DHT22;7779;49.596;11.070;2023-11-21T12:25:30;12.70;75.20
15359;DHT22;7779;49.596;11.070;2023-11-21T12:28:00;12.70;75.40
15359;DHT22;7779;49.596;11.070;2023-11-21T12:30:34;12.70;74.10
15359;DHT22;7779;49.596;11.070;2023-11-21T12:33:02;12.70;75.30
15359;DHT22;7779;49.596;11.070;2023-11-21T12:35:33;12.70;75.30
15359;DHT22;7779;49.596;11.070;2023-11-21T12:38:02;12.70;75.20
15359;DHT22;7779;49.596;11.070;2023-11-21T12:40:29;12.70;73.50
15359;DHT22;7779;49.596;11.070;2023-11-21T12:42:56;12.70;75.00
15359;DHT22;7779;49.596;11.070;2023-11-21T12:45:28;12.70;74.90
15359;DHT22;7779;49.596;11.070;2023-11-21T12:47:59;12.70;74.80
15359;DHT22;7779;49.596;11.070;2023-11-21T12:50:29;12.60;74.50
15359;DHT22;7779;49.596;11.070;2023-11-21T12:53:04;12.60;74.40
15359;DHT22;7779;49.596;11.070;2023-11-21T12:55:35;12.60;74.30
15359;DHT22;7779;49.596;11.070;2023-11-21T12:58:06;12.60;74.30
15359;DHT22;7779;49.596;11.070;2023-11-21T13:00:44;12.60;74.60
15359;DHT22;7779;49.596;11.070;2023-11-21T13:03:14;12.60;74.60
15359;DHT22;7779;49.596;11.070;2023-11-21T13:05:49;12.60;75.00
15359;DHT22;7779;49.596;11.070;2023-11-21T13:08:20;12.60;75.00
15359;DHT22;7779;49.596;11.070;2023-11-21T13:10:53;12.70;74.90
15359;DHT22;7779;49.596;11.070;2023-11-21T13:13:21;12.70;74.50
15359;DHT22;7779;49.596;11.070;2023-11-21T13:16:02;12.70;74.70
15359;DHT22;7779;49.596;11.070;2023-11-21T13:18:33;12.70;73.40
15359;DHT22;7779;49.596;11.070;2023-11-21T13:21:02;12.70;74.20
15359;DHT22;7779;49.596;11.070;2023-11-21T13:23:38;12.70;74.00
15359;DHT22;7779;49.596;11.070;2023-11-21T13:26:04;12.80;74.00
15359;DHT22;7779;49.596;11.070;2023-11-21T13:28:33;12.80;73.90
15359;DHT22;7779;49.596;11.070;2023-11-21T13:31:00;12.70;73.80
15359;DHT22;7779;49.596;11.070;2023-11-21T13:33:35;12.80;74.00
15359;DHT22;7779;49.596;11.070;2023-11-21T13:36:06;12.80;74.00
15359;DHT22;7779;49.596;11.070;2023-11-21T13:38:35;12.80;74.10
15359;DHT22;7779;49.596;11.070;2023-11-21T13:41:03;12.80;74.20
15359;DHT22;7779;49.596;11.070;2023-11-21T13:43:32;12.80;73.80
15359;DHT22;7779;49.596;11.070;2023-11-21T13:45:59;12.90;73.60
15359;DHT22;7779;49.596;11.070;2023-11-21T13:48:34;12.90;73.40
15359;DHT22;7779;49.596;11.070;2023-11-21T13:51:08;12.90;73.10
15359;DHT22;7779;49.596;11.070;2023-11-21T13:53:41;12.90;73.20
15359;DHT22;7779;49.596;11.070;2023-11-21T13:56:08;12.90;73.10
15359;DHT22;7779;49.596;11.070;2023-11-21T13:58:34;12.90;72.90
15359;DHT22;7779;49.596;11.070;2023-11-21T14:01:17;12.90;70.30
15359;DHT22;7779;49.596;11.070;2023-11-21T14:04:00;12.90;72.40
15359;DHT22;7779;49.596;11.070;2023-11-21T14:06:48;12.80;71.60
15359;DHT22;7779;49.596;11.070;2023-11-21T14:09:19;12.80;70.60
15359;DHT22;7779;49.596;11.070;2023-11-21T14:11:54;12.80;71.50
15359;DHT22;7779;49.596;11.070;2023-11-21T14:14:23;12.70;70.90
15359;DHT22;7779;49.596;11.070;2023-11-21T14:16:51;12.70;71.10
15359;DHT22;7779;49.596;11.070;2023-11-21T14:19:18;12.60;70.80
15359;DHT22;7779;49.596;11.070;2023-11-21T14:21:44;12.50;70.70
15359;DHT22;7779;49.596;11.070;2023-11-21T14:24:12;12.50;70.60
15359;DHT22;7779;49.596;11.070;2023-11-21T14:26:41;12.40;70.50
15359;DHT22;7779;49.596;11.070;2023-11-21T14:29:08;12.40;70.50
15359;DHT22;7779;49.596;11.070;2023-11-21T14:31:34;12.30;70.60
15359;DHT22;7779;49.596;11.070;2023-11-21T14:34:01;12.20;70.50
15359;DHT22;7779;49.596;11.070;2023-11-21T14:36:28;12.20;70.60
15359;DHT22;7779;49.596;11.070;2023-11-21T14:38:54;12.20;70.70
15359;DHT22;7779;49.596;11.070;2023-11-21T14:41:19;12.10;70.70
15359;DHT22;7779;49.596;11.070;2023-11-21T14:43:45;12.10;70.70
15359;DHT22;7779;49.596;11.070;2023-11-21T14:46:15;12.00;70.60
15359;DHT22;7779;49.596;11.070;2023-11-21T14:48:42;12.00;70.70
15359;DHT22;7779;49.596;11.070;2023-11-21T14:51:11;11.90;70.70
15359;DHT22;7779;49.596;11.070;2023-11-21T14:53:59;11.90;70.60
15359;DHT22;7779;49.596;11.070;2023-11-21T14:56:26;11.90;70.70
15359;DHT22;7779;49.596;11.070;2023-11-21T14:58:57;11.80;70.60
15359;DHT22;7779;49.596;11.070;2023-11-21T15:01:34;11.80;70.60
15359;DHT22;7779;49.596;11.070;2023-11-21T15:04:18;11.80;70.50
15359;DHT22;7779;49.596;11.070;2023-11-21T15:07:05;11.70;70.60
15359;DHT22;7779;49.596;11.070;2023-11-21T15:09:31;11.70;70.30
15359;DHT22;7779;49.596;11.070;2023-11-21T15:11:58;11.60;70.50
15359;DHT22;7779;49.596;11.070;2023-11-21T15:14:47;11.60;70.40
15359;DHT22;7779;49.596;11.070;2023-11-21T15:17:17;11.50;70.30
15359;DHT22;7779;49.596;11.070;2023-11-21T15:19:56;11.50;70.40
15359;DHT22;7779;49.596;11.070;2023-11-21T15:22:22;11.50;70.40
15359;DHT22;7779;49.596;11.070;2023-11-21T15:24:48;11.40;70.40
15359;DHT22;7779;49.596;11.070;2023-11-21T15:27:15;11.40;70.50
15359;DHT22;7779;49.596;11.070;2023-11-21T15:29:43;11.40;70.50
15359;DHT22;7779;49.596;11.070;2023-11-21T15:32:09;11.30;70.50
15359;DHT22;7779;49.596;11.070;2023-11-21T15:34:36;11.30;70.60
15359;DHT22;7779;49.596;11.070;2023-11-21T15:37:04;11.30;70.70
15359;DHT22;7779;49.596;11.070;2023-11-21T15:39:37;11.30;70.70
15359;DHT22;7779;49.596;11.070;2023-11-21T15:42:04;11.20;70.70
15359;DHT22;7779;49.596;11.070;2023-11-21T15:44:30;11.20;70.70
15359;DHT22;7779;49.596;11.070;2023-11-21T15:46:58;11.20;70.80
15359;DHT22;7779;49.596;11.070;2023-11-21T15:49:25;11.20;70.90
15359;DHT22;7779;49.596;11.070;2023-11-21T15:51:52;11.20;71.00
15359;DHT22;7779;49.596;11.070;2023-11-21T15:54:20;11.20;71.00
15359;DHT22;7779;49.596;11.070;2023-11-21T15:56:47;11.20;71.00